createdAt,value
2018-12-29T00:01:14.314Z,42.62
2018-12-29T00:04:03.260Z,49.20
2018-12-29T00:06:52.118Z,52.60
2018-12-29T00:09:41.175Z,49.70
2018-12-29T00:12:30.166Z,46.70
2018-12-29T00:15:19.113Z,47.67
2018-12-29T00:18:08.222Z,51.53
2018-12-29T00:20:57.172Z,49.45
2018-12-29T00:23:45.767Z,46.50
2018-12-29T00:26:35.073Z,51.83
2018-12-29T00:29:24.246Z,45.92
2018-12-29T00:32:13.541Z,45.52
2018-12-29T00:35:02.722Z,46.83
2018-12-29T00:37:51.273Z,48.58
2018-12-29T00:40:40.261Z,51.95
2018-12-29T00:43:28.972Z,47.73
2018-12-29T00:46:18.070Z,47.33
2018-12-29T00:49:06.952Z,50.70
2018-12-29T00:51:55.612Z,50.65
2018-12-29T00:54:44.741Z,38.25
2018-12-29T00:57:33.839Z,38.92
2018-12-29T01:00:22.423Z,43.60
2018-12-29T01:03:11.344Z,39.88
2018-12-29T01:06:01.137Z,40.67
2018-12-29T01:08:50.204Z,44.05
2018-12-29T01:11:39.125Z,42.62
2018-12-29T01:14:28.618Z,43.55
2018-12-29T01:17:17.665Z,39.90
2018-12-29T01:20:07.020Z,42.00
2018-12-29T01:22:56.049Z,42.95
2018-12-29T01:25:44.924Z,42.23
2018-12-29T01:28:34.097Z,38.42
2018-12-29T01:31:23.106Z,43.23
2018-12-29T01:34:12.131Z,42.98
2018-12-29T01:37:01.359Z,45.40
2018-12-29T01:39:50.342Z,41.42
2018-12-29T01:42:39.234Z,43.15
2018-12-29T01:45:27.805Z,40.88
2018-12-29T01:48:16.152Z,39.40
2018-12-29T01:51:04.953Z,39.70
2018-12-29T01:53:53.379Z,41.50
2018-12-29T01:56:42.234Z,42.93
2018-12-29T01:59:31.331Z,46.15
2018-12-29T02:02:20.464Z,45.83
2018-12-29T02:05:13.129Z,46.50
2018-12-29T02:08:02.421Z,44.40
2018-12-29T02:10:51.166Z,44.77
2018-12-29T02:13:39.866Z,42.03
2018-12-29T02:16:29.107Z,49.20
2018-12-29T02:19:18.530Z,57.00
2018-12-29T02:22:07.573Z,46.92
2018-12-29T02:24:55.921Z,48.87
2018-12-29T02:27:44.699Z,53.48
2018-12-29T02:30:33.910Z,47.45
2018-12-29T02:33:22.856Z,53.40
2018-12-29T02:36:11.756Z,47.73
2018-12-29T02:39:00.537Z,42.90
2018-12-29T02:41:49.496Z,45.50
2018-12-29T02:44:38.822Z,44.95
2018-12-29T02:47:27.721Z,52.10
2018-12-29T02:50:16.311Z,48.65
2018-12-29T02:53:04.768Z,54.05
2018-12-29T02:55:53.775Z,52.35
2018-12-29T02:58:42.866Z,55.95
2018-12-29T03:01:31.517Z,49.88
2018-12-29T03:04:20.310Z,51.73
2018-12-29T03:07:09.380Z,58.35
2018-12-29T03:09:57.896Z,52.83
2018-12-29T03:12:46.966Z,69.00
2018-12-29T03:15:41.144Z,59.33
2018-12-29T03:18:26.218Z,55.50
2018-12-29T03:21:16.196Z,60.33
2018-12-29T03:24:05.407Z,62.35
2018-12-29T03:26:54.394Z,51.35
2018-12-29T03:29:42.900Z,43.87
2018-12-29T03:32:31.498Z,49.75
2018-12-29T03:35:20.666Z,46.33
2018-12-29T03:38:09.890Z,52.70
2018-12-29T03:41:00.177Z,44.67
2018-12-29T03:43:49.617Z,41.48
2018-12-29T03:46:38.840Z,39.55
2018-12-29T03:49:27.723Z,38.45
2018-12-29T03:52:16.009Z,48.35
2018-12-29T03:55:05.077Z,42.05
2018-12-29T03:57:53.599Z,37.90
2018-12-29T04:00:42.557Z,41.30
2018-12-29T04:03:31.605Z,40.73
2018-12-29T04:06:20.339Z,44.18
2018-12-29T04:09:32.393Z,42.13
2018-12-29T04:12:21.081Z,36.17
2018-12-29T04:15:10.352Z,31.62
2018-12-29T04:17:59.408Z,37.90
2018-12-29T04:20:48.347Z,48.65
2018-12-29T04:23:37.355Z,35.60
2018-12-29T04:26:26.107Z,34.03
2018-12-29T04:29:15.399Z,33.30
2018-12-29T04:32:03.734Z,33.73
2018-12-29T04:34:52.863Z,30.15
2018-12-29T04:37:41.188Z,38.00
2018-12-29T04:40:29.952Z,31.60
2018-12-29T04:43:18.718Z,32.90
2018-12-29T04:46:07.580Z,37.25
2018-12-29T04:48:56.513Z,38.23
2018-12-29T04:51:45.542Z,31.33
2018-12-29T04:54:34.737Z,29.00
2018-12-29T04:57:23.894Z,30.60
2018-12-29T05:00:12.600Z,30.12
2018-12-29T05:03:01.422Z,31.45
2018-12-29T05:05:50.122Z,28.52
2018-12-29T05:08:39.225Z,28.98
2018-12-29T05:11:28.298Z,33.13
2018-12-29T05:14:17.533Z,25.68
2018-12-29T05:17:06.252Z,27.80
2018-12-29T05:19:55.446Z,23.20
2018-12-29T05:22:44.506Z,23.45
2018-12-29T05:25:33.067Z,22.85
2018-12-29T05:28:22.278Z,25.57
2018-12-29T05:31:10.845Z,28.30
2018-12-29T05:33:59.681Z,25.82
2018-12-29T05:36:48.817Z,26.07
2018-12-29T05:39:37.641Z,24.67
2018-12-29T05:42:27.007Z,28.27
2018-12-29T05:45:16.120Z,30.55
2018-12-29T05:48:05.354Z,33.05
2018-12-29T05:50:54.428Z,32.95
2018-12-29T05:53:43.365Z,30.62
2018-12-29T05:56:32.127Z,28.62
2018-12-29T05:59:21.198Z,34.70
2018-12-29T06:02:09.503Z,27.77
2018-12-29T06:04:58.498Z,31.17
2018-12-29T06:07:47.511Z,29.63
2018-12-29T06:10:36.817Z,31.07
2018-12-29T06:13:25.669Z,30.85
2018-12-29T06:16:14.417Z,28.38
2018-12-29T06:19:02.953Z,31.05
2018-12-29T06:21:52.479Z,33.75
2018-12-29T06:24:41.403Z,36.35
2018-12-29T06:27:30.126Z,31.00
2018-12-29T06:30:18.788Z,29.07
2018-12-29T06:33:07.746Z,35.98
2018-12-29T06:35:56.789Z,42.15
2018-12-29T06:38:46.018Z,34.33
2018-12-29T06:41:34.595Z,45.65
2018-12-29T06:44:23.533Z,38.98
2018-12-29T06:47:12.592Z,37.80
2018-12-29T06:50:01.620Z,44.63
2018-12-29T06:52:49.851Z,38.80
2018-12-29T06:55:38.927Z,42.85
2018-12-29T06:58:28.187Z,47.62
2018-12-29T07:01:16.890Z,51.15
2018-12-29T07:04:05.487Z,48.83
2018-12-29T07:06:54.597Z,50.98
2018-12-29T07:09:43.150Z,50.80
2018-12-29T07:12:32.286Z,48.75
2018-12-29T07:15:21.298Z,42.95
2018-12-29T07:18:10.416Z,52.43
2018-12-29T07:20:59.327Z,48.98
2018-12-29T07:23:48.122Z,51.48
2018-12-29T07:26:37.211Z,51.10
2018-12-29T07:29:26.251Z,45.95
2018-12-29T07:32:15.159Z,45.85
2018-12-29T07:35:04.529Z,47.65
2018-12-29T07:37:52.795Z,48.17
2018-12-29T07:40:42.249Z,49.80
2018-12-29T07:43:31.306Z,44.10
2018-12-29T07:46:19.862Z,45.50
2018-12-29T07:49:08.852Z,44.58
2018-12-29T07:51:57.088Z,49.18
2018-12-29T07:54:46.093Z,44.55
2018-12-29T07:57:35.120Z,44.93
2018-12-29T08:00:24.026Z,49.23
2018-12-29T08:03:13.180Z,42.95
2018-12-29T08:06:01.883Z,53.30
2018-12-29T08:08:50.752Z,49.85
2018-12-29T08:11:39.988Z,51.02
2018-12-29T08:14:28.242Z,49.18
2018-12-29T08:17:17.459Z,50.60
2018-12-29T08:20:07.181Z,45.63
2018-12-29T08:22:56.499Z,50.50
2018-12-29T08:25:45.317Z,48.42
2018-12-29T08:28:34.513Z,43.95
2018-12-29T08:31:23.110Z,39.53
2018-12-29T08:34:12.348Z,38.40
2018-12-29T08:37:01.399Z,40.92
2018-12-29T08:39:50.165Z,36.80
2018-12-29T08:42:38.438Z,45.03
2018-12-29T08:45:27.251Z,38.58
2018-12-29T08:48:16.268Z,42.17
2018-12-29T08:51:05.172Z,38.50
2018-12-29T08:53:54.342Z,43.92
2018-12-29T08:56:43.179Z,36.08
2018-12-29T08:59:32.096Z,38.80
2018-12-29T09:02:20.784Z,39.85
2018-12-29T09:05:09.563Z,38.15
2018-12-29T09:07:58.659Z,37.00
2018-12-29T09:10:47.238Z,30.08
2018-12-29T09:13:35.693Z,32.90
2018-12-29T09:16:24.391Z,36.40
2018-12-29T09:19:13.317Z,34.33
2018-12-29T09:22:02.115Z,39.85
2018-12-29T09:24:51.278Z,37.48
2018-12-29T09:27:40.429Z,35.88
2018-12-29T09:30:28.705Z,39.70
2018-12-29T09:33:17.806Z,40.35
2018-12-29T09:36:06.601Z,37.78
2018-12-29T09:38:55.563Z,37.13
2018-12-29T09:41:44.617Z,40.65
2018-12-29T09:44:33.579Z,38.98
2018-12-29T09:47:22.386Z,43.65
2018-12-29T09:50:10.760Z,39.18
2018-12-29T09:52:59.609Z,39.92
2018-12-29T09:55:48.534Z,41.68
2018-12-29T09:58:37.652Z,38.40
2018-12-29T10:01:26.932Z,43.95
2018-12-29T10:04:15.348Z,39.03
2018-12-29T10:07:04.275Z,43.10
2018-12-29T10:09:53.471Z,38.65
2018-12-29T10:12:42.233Z,42.13
2018-12-29T10:15:30.571Z,44.33
2018-12-29T10:18:19.537Z,45.48
2018-12-29T10:21:08.585Z,49.65
2018-12-29T10:23:57.672Z,39.23
2018-12-29T10:26:46.427Z,42.50
2018-12-29T10:29:36.039Z,47.17
2018-12-29T10:32:25.098Z,37.42
2018-12-29T10:35:13.819Z,36.50
2018-12-29T10:38:02.457Z,33.80
2018-12-29T10:40:51.555Z,39.88
2018-12-29T10:43:40.586Z,36.00
2018-12-29T10:46:28.961Z,35.38
2018-12-29T10:49:17.745Z,32.20
2018-12-29T10:52:06.648Z,29.02
2018-12-29T10:54:55.334Z,36.10
2018-12-29T10:57:44.467Z,34.18
2018-12-29T11:00:35.103Z,34.05
2018-12-29T11:03:23.241Z,34.63
2018-12-29T11:06:11.896Z,36.08
2018-12-29T11:09:00.563Z,33.83
2018-12-29T11:11:49.639Z,30.25
2018-12-29T11:14:38.616Z,32.75
2018-12-29T11:17:27.879Z,31.90
2018-12-29T11:20:16.745Z,32.75
2018-12-29T11:23:06.108Z,32.93
2018-12-29T11:25:55.351Z,28.07
2018-12-29T11:28:44.108Z,33.92
2018-12-29T11:31:32.731Z,28.92
2018-12-29T11:34:21.634Z,30.23
2018-12-29T11:37:10.740Z,28.77
2018-12-29T11:39:59.608Z,29.32
2018-12-29T11:42:48.784Z,31.07
2018-12-29T11:45:37.721Z,35.05
2018-12-29T11:48:26.608Z,34.38
2018-12-29T11:51:15.398Z,31.95
2018-12-29T11:54:04.479Z,28.25
2018-12-29T11:56:53.656Z,34.80
2018-12-29T11:59:42.946Z,33.65
2018-12-29T12:02:31.900Z,32.83
2018-12-29T12:05:20.741Z,36.00
2018-12-29T12:08:09.703Z,31.82
2018-12-29T12:10:58.752Z,32.25
2018-12-29T12:13:47.947Z,36.88
2018-12-29T12:16:36.835Z,31.93
2018-12-29T12:19:25.922Z,41.20
2018-12-29T12:22:14.335Z,46.85
2018-12-29T12:25:03.222Z,52.78
2018-12-29T12:27:52.042Z,52.65
2018-12-29T12:30:40.854Z,58.28
2018-12-29T12:33:30.663Z,60.03
2018-12-29T12:36:19.229Z,57.05
2018-12-29T12:39:08.056Z,63.20
2018-12-29T12:41:57.556Z,58.83
2018-12-29T12:44:46.866Z,52.05
2018-12-29T12:47:35.940Z,52.73
2018-12-29T12:50:24.999Z,50.80
2018-12-29T12:53:13.618Z,54.50
2018-12-29T12:56:02.760Z,56.70
2018-12-29T12:58:51.473Z,52.85
2018-12-29T13:01:40.328Z,49.45
2018-12-29T13:04:29.157Z,49.85
2018-12-29T13:07:17.755Z,50.75
2018-12-29T13:10:07.932Z,50.60
2018-12-29T13:12:57.024Z,49.38
2018-12-29T13:15:46.311Z,53.35
2018-12-29T13:18:35.553Z,53.95
2018-12-29T13:21:24.165Z,49.15
2018-12-29T13:24:12.780Z,50.45
2018-12-29T13:27:02.080Z,55.73
2018-12-29T13:29:51.054Z,49.18
2018-12-29T13:32:39.734Z,50.92
2018-12-29T13:35:28.794Z,54.58
2018-12-29T13:38:17.721Z,55.60
2018-12-29T13:41:06.593Z,50.12
2018-12-29T13:43:55.727Z,48.02
2018-12-29T13:46:44.481Z,51.37
2018-12-29T13:49:33.724Z,54.35
2018-12-29T13:52:22.830Z,52.30
2018-12-29T13:55:12.072Z,55.48
2018-12-29T13:58:00.684Z,52.00
2018-12-29T14:00:50.980Z,54.98
2018-12-29T14:03:39.519Z,55.78
2018-12-29T14:06:27.919Z,97.92
2018-12-29T14:09:17.005Z,57.48
2018-12-29T14:12:05.854Z,52.73
2018-12-29T14:14:55.039Z,56.23
2018-12-29T14:17:47.157Z,55.83
2018-12-29T14:20:36.111Z,55.33
2018-12-29T14:23:26.250Z,56.20
2018-12-29T14:26:16.583Z,51.42
2018-12-29T14:29:05.915Z,60.10
2018-12-29T14:31:55.121Z,51.45
2018-12-29T14:34:44.020Z,57.00
2018-12-29T14:37:33.226Z,61.37
2018-12-29T14:40:21.773Z,51.18
2018-12-29T14:43:10.770Z,53.40
2018-12-29T14:45:59.311Z,54.58
2018-12-29T14:48:48.093Z,49.27
2018-12-29T14:51:37.046Z,53.73
2018-12-29T14:54:26.077Z,58.58
2018-12-29T14:57:17.243Z,53.05
2018-12-29T15:00:08.036Z,58.28
2018-12-29T15:02:56.508Z,56.63
2018-12-29T15:05:45.410Z,53.90
2018-12-29T15:08:34.584Z,53.20
2018-12-29T15:11:24.061Z,56.73
2018-12-29T15:14:12.782Z,58.70
2018-12-29T15:17:01.490Z,55.40
2018-12-29T15:19:49.797Z,56.48
2018-12-29T15:22:38.528Z,56.88
2018-12-29T15:25:27.265Z,64.53
2018-12-29T15:28:16.515Z,53.38
2018-12-29T15:31:05.905Z,59.10
2018-12-29T15:33:54.921Z,50.63
2018-12-29T15:36:44.606Z,50.88
2018-12-29T15:39:33.387Z,49.40
2018-12-29T15:42:22.551Z,50.52
2018-12-29T15:45:11.789Z,53.08
2018-12-29T15:48:00.869Z,51.18
2018-12-29T15:50:49.243Z,53.68
2018-12-29T15:53:38.312Z,49.58
2018-12-29T15:56:27.189Z,48.23
2018-12-29T15:59:16.132Z,48.58
2018-12-29T16:02:05.230Z,50.35
2018-12-29T16:04:54.333Z,50.20
2018-12-29T16:07:43.427Z,47.70
2018-12-29T16:10:32.659Z,49.77
2018-12-29T16:13:21.520Z,46.05
2018-12-29T16:16:10.563Z,40.38
2018-12-29T16:19:00.277Z,42.45
2018-12-29T16:21:50.120Z,43.55
2018-12-29T16:24:39.520Z,41.40
2018-12-29T16:27:27.971Z,42.20
2018-12-29T16:30:17.147Z,40.40
2018-12-29T16:33:06.161Z,46.55
2018-12-29T16:35:55.246Z,37.28
2018-12-29T16:38:44.247Z,41.05
2018-12-29T16:41:33.334Z,38.92
2018-12-29T16:44:22.456Z,38.65
2018-12-29T16:47:11.796Z,33.40
2018-12-29T16:50:01.323Z,33.02
2018-12-29T16:52:49.806Z,44.27
2018-12-29T16:55:38.227Z,36.23
2018-12-29T16:58:27.702Z,36.35
2018-12-29T17:01:16.892Z,33.10
2018-12-29T17:04:06.548Z,35.60
2018-12-29T17:06:55.402Z,31.95
2018-12-29T17:09:44.929Z,44.10
2018-12-29T17:12:34.664Z,219.68
2018-12-29T17:15:24.284Z,118.53
2018-12-29T17:18:13.192Z,164.60
2018-12-29T17:21:01.509Z,35.35
2018-12-29T17:23:50.628Z,55.00
2018-12-29T17:26:39.314Z,73.75
2018-12-29T17:29:29.222Z,33.85
2018-12-29T17:32:18.495Z,42.05
2018-12-29T17:35:07.504Z,35.15
2018-12-29T17:37:55.911Z,29.35
2018-12-29T17:40:44.614Z,32.93
2018-12-29T17:43:32.972Z,39.70
2018-12-29T17:46:22.880Z,29.75
2018-12-29T17:49:12.036Z,34.27
2018-12-29T17:52:01.110Z,37.93
2018-12-29T17:54:50.049Z,34.20
2018-12-29T17:57:38.695Z,33.90
2018-12-29T18:00:27.120Z,29.87
2018-12-29T18:03:16.323Z,30.75
2018-12-29T18:06:05.507Z,30.82
2018-12-29T18:08:54.376Z,32.42
2018-12-29T18:11:43.684Z,25.17
2018-12-29T18:14:32.820Z,26.87
2018-12-29T18:17:21.663Z,33.02
2018-12-29T18:20:11.883Z,28.50
2018-12-29T18:23:00.837Z,24.35
2018-12-29T18:25:49.971Z,24.82
2018-12-29T18:28:39.042Z,26.50
2018-12-29T18:31:28.193Z,27.22
2018-12-29T18:34:17.033Z,25.72
2018-12-29T18:37:06.248Z,24.37
2018-12-29T18:39:55.427Z,23.40
2018-12-29T18:42:44.481Z,23.65
2018-12-29T18:45:33.247Z,30.43
2018-12-29T18:48:21.638Z,26.45
2018-12-29T18:51:11.401Z,26.93
2018-12-29T18:54:03.421Z,25.12
2018-12-29T18:56:53.228Z,26.07
2018-12-29T18:59:42.503Z,27.87
2018-12-29T19:02:31.234Z,24.12
2018-12-29T19:05:20.134Z,28.07
2018-12-29T19:08:08.959Z,24.05
2018-12-29T19:10:57.723Z,25.85
2018-12-29T19:13:46.605Z,22.75
2018-12-29T19:16:35.575Z,23.10
2018-12-29T19:19:24.637Z,21.17
2018-12-29T19:22:13.350Z,19.02
2018-12-29T19:25:02.830Z,20.08
2018-12-29T19:27:51.821Z,18.98
2018-12-29T19:30:40.673Z,19.15
2018-12-29T19:33:29.586Z,16.97
2018-12-29T19:36:19.196Z,20.08
2018-12-29T19:39:08.316Z,17.87
2018-12-29T19:41:57.296Z,15.63
2018-12-29T19:44:46.834Z,16.65
2018-12-29T19:47:36.354Z,14.40
2018-12-29T19:50:25.784Z,17.23
2018-12-29T19:53:14.556Z,12.07
2018-12-29T19:56:03.585Z,12.60
2018-12-29T19:58:52.532Z,6.75
2018-12-29T20:01:41.206Z,7.53
2018-12-29T20:04:30.763Z,9.68
2018-12-29T20:07:20.367Z,5.05
2018-12-29T20:10:09.791Z,11.33
2018-12-29T20:12:59.051Z,4.97
2018-12-29T20:15:47.964Z,3.85
2018-12-29T20:18:36.733Z,3.17
2018-12-29T20:21:25.913Z,5.25
2018-12-29T20:24:14.817Z,5.42
2018-12-29T20:27:03.933Z,5.78
2018-12-29T20:29:52.743Z,9.28
2018-12-29T20:32:41.268Z,4.28
2018-12-29T20:35:29.595Z,4.75
2018-12-29T20:38:19.216Z,5.67
2018-12-29T20:41:08.690Z,2.45
2018-12-29T20:43:58.251Z,4.37
2018-12-29T20:46:46.704Z,7.80
2018-12-29T20:49:36.057Z,7.60
2018-12-29T20:52:24.974Z,8.33
2018-12-29T20:55:13.528Z,4.47
2018-12-29T20:58:01.882Z,8.30
2018-12-29T21:00:50.630Z,3.45
2018-12-29T21:03:39.492Z,6.33
2018-12-29T21:06:28.667Z,3.15
2018-12-29T21:09:17.374Z,5.28
2018-12-29T21:12:06.269Z,6.78
2018-12-29T21:14:55.335Z,4.15
2018-12-29T21:17:44.598Z,6.60
2018-12-29T21:20:33.523Z,7.12
2018-12-29T21:23:22.454Z,3.83
2018-12-29T21:26:11.094Z,3.55
2018-12-29T21:29:00.216Z,6.53
2018-12-29T21:31:49.241Z,7.20
2018-12-29T21:34:38.246Z,8.98
2018-12-29T21:37:27.108Z,3.10
2018-12-29T21:40:16.178Z,7.08
2018-12-29T21:43:05.295Z,10.03
2018-12-29T21:45:54.415Z,2.52
2018-12-29T21:48:43.598Z,6.25
2018-12-29T21:51:32.771Z,7.08
2018-12-29T21:54:22.361Z,5.92
2018-12-29T21:57:11.463Z,6.37
2018-12-29T22:00:00.626Z,9.23
2018-12-29T22:02:49.679Z,9.85
2018-12-29T22:05:38.751Z,7.42
2018-12-29T22:08:27.657Z,5.08
2018-12-29T22:11:16.655Z,8.03
2018-12-29T22:14:05.568Z,3.67
2018-12-29T22:16:54.364Z,4.67
2018-12-29T22:19:43.298Z,4.37
2018-12-29T22:22:31.899Z,5.25
2018-12-29T22:25:20.823Z,6.12
2018-12-29T22:28:09.952Z,4.83
2018-12-29T22:30:59.073Z,6.12
2018-12-29T22:33:48.517Z,8.73
2018-12-29T22:36:37.440Z,12.82
2018-12-29T22:39:26.222Z,9.75
2018-12-29T22:42:14.648Z,6.75
2018-12-29T22:45:03.539Z,9.80
2018-12-29T22:47:53.831Z,8.20
2018-12-29T22:50:42.883Z,6.05
2018-12-29T22:53:31.856Z,4.67
2018-12-29T22:56:20.877Z,8.80
2018-12-29T22:59:10.395Z,10.60
2018-12-29T23:01:59.055Z,11.95
2018-12-29T23:04:48.133Z,12.18
2018-12-29T23:07:37.386Z,21.37
2018-12-29T23:10:26.113Z,20.20
2018-12-29T23:13:15.114Z,16.05
2018-12-29T23:16:03.891Z,15.98
2018-12-29T23:18:53.041Z,21.20
2018-12-29T23:21:42.195Z,26.93
2018-12-29T23:24:31.819Z,28.65
2018-12-29T23:27:20.582Z,19.92
2018-12-29T23:30:11.295Z,14.00
2018-12-29T23:33:00.299Z,23.35
2018-12-29T23:35:49.681Z,16.82
2018-12-29T23:38:38.965Z,20.43
2018-12-29T23:41:27.622Z,18.82
2018-12-29T23:44:15.966Z,19.98
2018-12-29T23:47:04.595Z,15.65
2018-12-29T23:49:53.483Z,14.78
2018-12-29T23:52:42.741Z,16.67
2018-12-29T23:55:31.813Z,23.77
2018-12-29T23:58:20.752Z,16.73
